sensor_id;sensor_type;location;lat;lon;timestamp;P1;durP1;ratioP1;P2;durP2;ratioP2
34920;SDS011;21128;50.016;20.002;2024-03-08T00:00:34;33.20;;;22.50;;
34920;SDS011;21128;50.016;20.002;2024-03-08T00:03:21;36.30;;;22.70;;
34920;SDS011;21128;50.016;20.002;2024-03-08T00:05:48;38.50;;;23.90;;
34920;SDS011;21128;50.016;20.002;2024-03-08T00:08:15;44.30;;;24.80;;
34920;SDS011;21128;50.016;20.002;2024-03-08T00:10:42;36.80;;;23.10;;
34920;SDS011;21128;50.016;20.002;2024-03-08T00:13:09;38.50;;;23.90;;
34920;SDS011;21128;50.016;20.002;2024-03-08T00:15:35;37.40;;;24.00;;
34920;SDS011;21128;50.016;20.002;2024-03-08T00:18:02;39.60;;;23.10;;
34920;SDS011;21128;50.016;20.002;2024-03-08T00:20:29;38.40;;;24.20;;
34920;SDS011;21128;50.016;20.002;2024-03-08T00:22:56;37.60;;;23.30;;
34920;SDS011;21128;50.016;20.002;2024-03-08T00:25:24;37.50;;;23.90;;
34920;SDS011;21128;50.016;20.002;2024-03-08T00:27:51;34.90;;;24.50;;
34920;SDS011;21128;50.016;20.002;2024-03-08T00:30:22;38.60;;;24.90;;
34920;SDS011;21128;50.016;20.002;2024-03-08T00:32:50;43.10;;;24.80;;
34920;SDS011;21128;50.016;20.002;2024-03-08T00:35:16;39.30;;;23.50;;
34920;SDS011;21128;50.016;20.002;2024-03-08T00:37:44;31.70;;;21.40;;
34920;SDS011;21128;50.016;20.002;2024-03-08T00:40:14;36.40;;;22.80;;
34920;SDS011;21128;50.016;20.002;2024-03-08T00:42:41;35.60;;;22.60;;
34920;SDS011;21128;50.016;20.002;2024-03-08T00:45:10;35.30;;;22.70;;
34920;SDS011;21128;50.016;20.002;2024-03-08T00:47:37;40.30;;;24.10;;
34920;SDS011;21128;50.016;20.002;2024-03-08T00:50:04;38.30;;;23.60;;
34920;SDS011;21128;50.016;20.002;2024-03-08T00:52:31;36.60;;;22.60;;
34920;SDS011;21128;50.016;20.002;2024-03-08T00:54:58;34.80;;;22.40;;
34920;SDS011;21128;50.016;20.002;2024-03-08T00:57:25;33.00;;;21.00;;
34920;SDS011;21128;50.016;20.002;2024-03-08T00:59:52;39.00;;;23.80;;
34920;SDS011;21128;50.016;20.002;2024-03-08T01:02:19;37.10;;;22.10;;
34920;SDS011;21128;50.016;20.002;2024-03-08T01:04:47;36.50;;;22.10;;
34920;SDS011;21128;50.016;20.002;2024-03-08T01:07:14;36.30;;;24.00;;
34920;SDS011;21128;50.016;20.002;2024-03-08T01:09:41;38.90;;;22.60;;
34920;SDS011;21128;50.016;20.002;2024-03-08T01:12:09;36.50;;;22.90;;
34920;SDS011;21128;50.016;20.002;2024-03-08T01:14:37;35.20;;;22.20;;
34920;SDS011;21128;50.016;20.002;2024-03-08T01:17:04;37.90;;;23.30;;
34920;SDS011;21128;50.016;20.002;2024-03-08T01:19:31;39.60;;;22.70;;
34920;SDS011;21128;50.016;20.002;2024-03-08T01:21:59;39.90;;;24.00;;
34920;SDS011;21128;50.016;20.002;2024-03-08T01:24:26;40.70;;;23.40;;
34920;SDS011;21128;50.016;20.002;2024-03-08T01:26:53;41.70;;;23.60;;
34920;SDS011;21128;50.016;20.002;2024-03-08T01:29:19;40.00;;;25.30;;
34920;SDS011;21128;50.016;20.002;2024-03-08T01:31:46;32.90;;;21.50;;
34920;SDS011;21128;50.016;20.002;2024-03-08T01:34:13;36.10;;;23.90;;
34920;SDS011;21128;50.016;20.002;2024-03-08T01:36:40;38.50;;;23.40;;
34920;SDS011;21128;50.016;20.002;2024-03-08T01:39:06;40.10;;;23.90;;
34920;SDS011;21128;50.016;20.002;2024-03-08T01:41:34;38.40;;;23.90;;
34920;SDS011;21128;50.016;20.002;2024-03-08T01:44:02;40.70;;;25.00;;
34920;SDS011;21128;50.016;20.002;2024-03-08T01:46:29;41.00;;;24.30;;
34920;SDS011;21128;50.016;20.002;2024-03-08T01:48:57;40.00;;;23.80;;
34920;SDS011;21128;50.016;20.002;2024-03-08T01:51:27;39.00;;;23.60;;
34920;SDS011;21128;50.016;20.002;2024-03-08T01:53:55;36.20;;;23.80;;
34920;SDS011;21128;50.016;20.002;2024-03-08T01:56:26;35.10;;;23.80;;
34920;SDS011;21128;50.016;20.002;2024-03-08T01:58:54;37.30;;;24.80;;
34920;SDS011;21128;50.016;20.002;2024-03-08T02:01:21;37.80;;;25.10;;
34920;SDS011;21128;50.016;20.002;2024-03-08T02:03:48;38.40;;;25.10;;
34920;SDS011;21128;50.016;20.002;2024-03-08T02:06:16;39.10;;;25.00;;
34920;SDS011;21128;50.016;20.002;2024-03-08T02:08:43;42.10;;;25.00;;
34920;SDS011;21128;50.016;20.002;2024-03-08T02:11:12;40.90;;;25.10;;
34920;SDS011;21128;50.016;20.002;2024-03-08T02:13:39;42.50;;;26.30;;
34920;SDS011;21128;50.016;20.002;2024-03-08T02:16:06;37.70;;;24.30;;
34920;SDS011;21128;50.016;20.002;2024-03-08T02:18:34;37.80;;;24.30;;
34920;SDS011;21128;50.016;20.002;2024-03-08T02:21:02;37.80;;;23.80;;
34920;SDS011;21128;50.016;20.002;2024-03-08T02:23:30;43.30;;;24.50;;
34920;SDS011;21128;50.016;20.002;2024-03-08T02:25:58;38.60;;;24.80;;
34920;SDS011;21128;50.016;20.002;2024-03-08T02:28:26;43.30;;;26.10;;
34920;SDS011;21128;50.016;20.002;2024-03-08T02:30:52;46.30;;;25.90;;
34920;SDS011;21128;50.016;20.002;2024-03-08T02:33:23;44.30;;;25.60;;
34920;SDS011;21128;50.016;20.002;2024-03-08T02:35:50;41.30;;;25.20;;
34920;SDS011;21128;50.016;20.002;2024-03-08T02:38:18;43.90;;;25.40;;
34920;SDS011;21128;50.016;20.002;2024-03-08T02:40:47;38.60;;;25.60;;
34920;SDS011;21128;50.016;20.002;2024-03-08T02:43:16;45.80;;;24.60;;
34920;SDS011;21128;50.016;20.002;2024-03-08T02:45:44;40.20;;;24.70;;
34920;SDS011;21128;50.016;20.002;2024-03-08T02:48:14;40.90;;;26.10;;
34920;SDS011;21128;50.016;20.002;2024-03-08T02:50:42;42.70;;;25.00;;
34920;SDS011;21128;50.016;20.002;2024-03-08T02:53:11;42.40;;;26.30;;
34920;SDS011;21128;50.016;20.002;2024-03-08T02:55:40;43.90;;;27.40;;
34920;SDS011;21128;50.016;20.002;2024-03-08T02:58:07;46.30;;;27.40;;
34920;SDS011;21128;50.016;20.002;2024-03-08T03:00:38;41.20;;;26.30;;
34920;SDS011;21128;50.016;20.002;2024-03-08T03:03:06;43.80;;;28.10;;
34920;SDS011;21128;50.016;20.002;2024-03-08T03:05:33;46.20;;;27.80;;
34920;SDS011;21128;50.016;20.002;2024-03-08T03:08:00;43.50;;;27.90;;
34920;SDS011;21128;50.016;20.002;2024-03-08T03:10:27;43.00;;;27.20;;
34920;SDS011;21128;50.016;20.002;2024-03-08T03:12:54;48.20;;;28.00;;
34920;SDS011;21128;50.016;20.002;2024-03-08T03:15:21;47.10;;;27.80;;
34920;SDS011;21128;50.016;20.002;2024-03-08T03:17:48;45.40;;;28.10;;
34920;SDS011;21128;50.016;20.002;2024-03-08T03:20:19;49.90;;;30.90;;
34920;SDS011;21128;50.016;20.002;2024-03-08T03:23:06;57.20;;;30.10;;
34920;SDS011;21128;50.016;20.002;2024-03-08T03:25:35;50.30;;;30.70;;
34920;SDS011;21128;50.016;20.002;2024-03-08T03:28:02;54.60;;;31.40;;
34920;SDS011;21128;50.016;20.002;2024-03-08T03:30:30;52.80;;;32.80;;
34920;SDS011;21128;50.016;20.002;2024-03-08T03:33:00;54.00;;;31.50;;
34920;SDS011;21128;50.016;20.002;2024-03-08T03:35:28;49.50;;;31.80;;
34920;SDS011;21128;50.016;20.002;2024-03-08T03:37:55;53.00;;;33.50;;
34920;SDS011;21128;50.016;20.002;2024-03-08T03:40:35;52.60;;;32.40;;
34920;SDS011;21128;50.016;20.002;2024-03-08T03:43:06;52.70;;;33.70;;
34920;SDS011;21128;50.016;20.002;2024-03-08T03:45:33;55.80;;;32.30;;
34920;SDS011;21128;50.016;20.002;2024-03-08T03:48:05;52.00;;;32.60;;
34920;SDS011;21128;50.016;20.002;2024-03-08T03:50:33;54.30;;;33.20;;
34920;SDS011;21128;50.016;20.002;2024-03-08T03:53:02;52.90;;;32.30;;
34920;SDS011;21128;50.016;20.002;2024-03-08T03:55:30;56.20;;;32.60;;
34920;SDS011;21128;50.016;20.002;2024-03-08T03:57:57;52.60;;;32.70;;
34920;SDS011;21128;50.016;20.002;2024-03-08T04:00:25;52.20;;;31.50;;
34920;SDS011;21128;50.016;20.002;2024-03-08T04:02:53;51.70;;;33.80;;
34920;SDS011;21128;50.016;20.002;2024-03-08T04:05:21;49.50;;;30.90;;
34920;SDS011;21128;50.016;20.002;2024-03-08T04:07:48;51.30;;;32.40;;
34920;SDS011;21128;50.016;20.002;2024-03-08T04:10:15;53.10;;;33.10;;
34920;SDS011;21128;50.016;20.002;2024-03-08T04:12:41;55.00;;;32.80;;
34920;SDS011;21128;50.016;20.002;2024-03-08T04:15:08;57.00;;;33.80;;
34920;SDS011;21128;50.016;20.002;2024-03-08T04:17:37;53.90;;;34.40;;
34920;SDS011;21128;50.016;20.002;2024-03-08T04:20:04;59.60;;;34.20;;
34920;SDS011;21128;50.016;20.002;2024-03-08T04:22:36;59.60;;;34.10;;
34920;SDS011;21128;50.016;20.002;2024-03-08T04:25:04;55.90;;;34.10;;
34920;SDS011;21128;50.016;20.002;2024-03-08T04:27:32;51.00;;;33.30;;
34920;SDS011;21128;50.016;20.002;2024-03-08T04:30:00;64.50;;;39.10;;
34920;SDS011;21128;50.016;20.002;2024-03-08T04:32:27;66.20;;;37.40;;
34920;SDS011;21128;50.016;20.002;2024-03-08T04:34:56;61.60;;;37.80;;
34920;SDS011;21128;50.016;20.002;2024-03-08T04:37:23;58.20;;;34.10;;
34920;SDS011;21128;50.016;20.002;2024-03-08T04:39:50;58.30;;;37.80;;
34920;SDS011;21128;50.016;20.002;2024-03-08T04:42:17;59.70;;;37.20;;
34920;SDS011;21128;50.016;20.002;2024-03-08T04:44:44;65.60;;;37.50;;
34920;SDS011;21128;50.016;20.002;2024-03-08T04:47:11;59.40;;;36.20;;
34920;SDS011;21128;50.016;20.002;2024-03-08T04:49:38;59.00;;;34.90;;
34920;SDS011;21128;50.016;20.002;2024-03-08T04:52:05;57.70;;;34.90;;
34920;SDS011;21128;50.016;20.002;2024-03-08T04:54:33;60.10;;;37.90;;
34920;SDS011;21128;50.016;20.002;2024-03-08T04:57:00;59.80;;;38.00;;
34920;SDS011;21128;50.016;20.002;2024-03-08T04:59:27;60.60;;;37.40;;
34920;SDS011;21128;50.016;20.002;2024-03-08T05:01:54;62.10;;;36.70;;
34920;SDS011;21128;50.016;20.002;2024-03-08T05:04:22;57.10;;;36.40;;
34920;SDS011;21128;50.016;20.002;2024-03-08T05:06:49;61.80;;;35.70;;
34920;SDS011;21128;50.016;20.002;2024-03-08T05:09:16;59.60;;;35.10;;
34920;SDS011;21128;50.016;20.002;2024-03-08T05:11:44;58.30;;;34.50;;
34920;SDS011;21128;50.016;20.002;2024-03-08T05:14:12;60.20;;;34.60;;
34920;SDS011;21128;50.016;20.002;2024-03-08T05:16:43;54.50;;;33.70;;
34920;SDS011;21128;50.016;20.002;2024-03-08T05:19:15;55.30;;;33.20;;
34920;SDS011;21128;50.016;20.002;2024-03-08T05:21:46;57.00;;;34.70;;
34920;SDS011;21128;50.016;20.002;2024-03-08T05:24:17;55.70;;;32.70;;
34920;SDS011;21128;50.016;20.002;2024-03-08T05:26:44;58.10;;;34.70;;
34920;SDS011;21128;50.016;20.002;2024-03-08T05:29:11;54.00;;;32.90;;
34920;SDS011;21128;50.016;20.002;2024-03-08T05:31:48;54.20;;;33.90;;
34920;SDS011;21128;50.016;20.002;2024-03-08T05:34:16;54.40;;;33.10;;
34920;SDS011;21128;50.016;20.002;2024-03-08T05:36:43;55.40;;;33.40;;
34920;SDS011;21128;50.016;20.002;2024-03-08T05:39:11;52.50;;;33.00;;
34920;SDS011;21128;50.016;20.002;2024-03-08T05:41:39;53.50;;;32.30;;
34920;SDS011;21128;50.016;20.002;2024-03-08T05:44:06;52.20;;;31.90;;
34920;SDS011;21128;50.016;20.002;2024-03-08T05:46:34;50.50;;;32.50;;
34920;SDS011;21128;50.016;20.002;2024-03-08T05:49:05;57.40;;;33.80;;
34920;SDS011;21128;50.016;20.002;2024-03-08T05:51:33;58.00;;;35.80;;
34920;SDS011;21128;50.016;20.002;2024-03-08T05:54:09;58.90;;;35.50;;
34920;SDS011;21128;50.016;20.002;2024-03-08T05:56:38;54.00;;;34.10;;
34920;SDS011;21128;50.016;20.002;2024-03-08T05:59:08;56.20;;;32.70;;
34920;SDS011;21128;50.016;20.002;2024-03-08T06:01:36;56.70;;;33.20;;
34920;SDS011;21128;50.016;20.002;2024-03-08T06:04:03;57.80;;;34.50;;
34920;SDS011;21128;50.016;20.002;2024-03-08T06:06:30;59.20;;;34.00;;
34920;SDS011;21128;50.016;20.002;2024-03-08T06:08:57;64.20;;;35.30;;
34920;SDS011;21128;50.016;20.002;2024-03-08T06:11:25;54.10;;;33.20;;
34920;SDS011;21128;50.016;20.002;2024-03-08T06:13:56;64.60;;;36.70;;
34920;SDS011;21128;50.016;20.002;2024-03-08T06:16:26;57.20;;;36.50;;
34920;SDS011;21128;50.016;20.002;2024-03-08T06:18:58;62.00;;;37.90;;
34920;SDS011;21128;50.016;20.002;2024-03-08T06:21:25;55.80;;;35.50;;
34920;SDS011;21128;50.016;20.002;2024-03-08T06:23:53;60.10;;;37.40;;
34920;SDS011;21128;50.016;20.002;2024-03-08T06:26:24;59.30;;;36.80;;
34920;SDS011;21128;50.016;20.002;2024-03-08T06:28:51;61.70;;;37.00;;
34920;SDS011;21128;50.016;20.002;2024-03-08T06:31:18;65.70;;;38.50;;
34920;SDS011;21128;50.016;20.002;2024-03-08T06:33:46;67.80;;;39.70;;
34920;SDS011;21128;50.016;20.002;2024-03-08T06:36:16;66.60;;;38.50;;
34920;SDS011;21128;50.016;20.002;2024-03-08T06:38:45;62.40;;;38.20;;
34920;SDS011;21128;50.016;20.002;2024-03-08T06:41:12;64.20;;;38.80;;
34920;SDS011;21128;50.016;20.002;2024-03-08T06:43:42;69.00;;;38.50;;
34920;SDS011;21128;50.016;20.002;2024-03-08T06:46:09;63.20;;;37.40;;
34920;SDS011;21128;50.016;20.002;2024-03-08T06:48:39;58.40;;;35.40;;
34920;SDS011;21128;50.016;20.002;2024-03-08T06:51:06;59.00;;;36.00;;
34920;SDS011;21128;50.016;20.002;2024-03-08T06:53:33;63.50;;;36.20;;
34920;SDS011;21128;50.016;20.002;2024-03-08T06:56:03;57.40;;;35.40;;
34920;SDS011;21128;50.016;20.002;2024-03-08T06:58:31;61.20;;;35.70;;
34920;SDS011;21128;50.016;20.002;2024-03-08T07:00:59;59.50;;;35.40;;
34920;SDS011;21128;50.016;20.002;2024-03-08T07:03:27;65.30;;;36.10;;
34920;SDS011;21128;50.016;20.002;2024-03-08T07:05:56;59.40;;;35.00;;
34920;SDS011;21128;50.016;20.002;2024-03-08T07:08:24;65.60;;;37.20;;
34920;SDS011;21128;50.016;20.002;2024-03-08T07:10:53;62.80;;;35.00;;
34920;SDS011;21128;50.016;20.002;2024-03-08T07:13:20;64.40;;;37.60;;
34920;SDS011;21128;50.016;20.002;2024-03-08T07:15:48;64.00;;;36.70;;
34920;SDS011;21128;50.016;20.002;2024-03-08T07:18:14;61.10;;;36.30;;
34920;SDS011;21128;50.016;20.002;2024-03-08T07:20:41;61.50;;;35.50;;
34920;SDS011;21128;50.016;20.002;2024-03-08T07:23:09;56.40;;;32.90;;
34920;SDS011;21128;50.016;20.002;2024-03-08T07:25:37;51.60;;;33.20;;
34920;SDS011;21128;50.016;20.002;2024-03-08T07:28:05;52.60;;;30.80;;
34920;SDS011;21128;50.016;20.002;2024-03-08T07:30:33;58.70;;;30.60;;
34920;SDS011;21128;50.016;20.002;2024-03-08T07:33:11;58.70;;;35.40;;
34920;SDS011;21128;50.016;20.002;2024-03-08T07:35:38;59.20;;;36.70;;
34920;SDS011;21128;50.016;20.002;2024-03-08T07:38:07;57.70;;;34.20;;
34920;SDS011;21128;50.016;20.002;2024-03-08T07:40:39;61.10;;;35.10;;
34920;SDS011;21128;50.016;20.002;2024-03-08T07:43:13;58.70;;;35.10;;
34920;SDS011;21128;50.016;20.002;2024-03-08T07:45:40;58.90;;;34.70;;
34920;SDS011;21128;50.016;20.002;2024-03-08T07:48:07;58.60;;;36.40;;
34920;SDS011;21128;50.016;20.002;2024-03-08T07:50:37;55.60;;;33.60;;
34920;SDS011;21128;50.016;20.002;2024-03-08T07:53:05;63.50;;;36.00;;
34920;SDS011;21128;50.016;20.002;2024-03-08T07:55:33;57.60;;;35.10;;
34920;SDS011;21128;50.016;20.002;2024-03-08T07:58:01;63.40;;;35.90;;
34920;SDS011;21128;50.016;20.002;2024-03-08T08:00:32;66.20;;;38.00;;
34920;SDS011;21128;50.016;20.002;2024-03-08T08:02:59;60.70;;;35.90;;
34920;SDS011;21128;50.016;20.002;2024-03-08T08:05:26;59.70;;;35.30;;
34920;SDS011;21128;50.016;20.002;2024-03-08T08:07:53;57.40;;;33.70;;
34920;SDS011;21128;50.016;20.002;2024-03-08T08:10:20;59.80;;;35.10;;
34920;SDS011;21128;50.016;20.002;2024-03-08T08:12:51;58.80;;;35.20;;
34920;SDS011;21128;50.016;20.002;2024-03-08T08:15:18;59.80;;;35.60;;
34920;SDS011;21128;50.016;20.002;2024-03-08T08:17:44;55.90;;;33.60;;
34920;SDS011;21128;50.016;20.002;2024-03-08T08:20:12;57.40;;;33.40;;
34920;SDS011;21128;50.016;20.002;2024-03-08T08:22:39;51.80;;;32.00;;
34920;SDS011;21128;50.016;20.002;2024-03-08T08:25:07;51.40;;;31.10;;
34920;SDS011;21128;50.016;20.002;2024-03-08T08:27:34;55.20;;;32.60;;
34920;SDS011;21128;50.016;20.002;2024-03-08T08:30:06;55.20;;;32.20;;
34920;SDS011;21128;50.016;20.002;2024-03-08T08:32:34;46.10;;;28.00;;
34920;SDS011;21128;50.016;20.002;2024-03-08T08:35:13;47.60;;;27.00;;
34920;SDS011;21128;50.016;20.002;2024-03-08T08:37:40;45.30;;;28.30;;
34920;SDS011;21128;50.016;20.002;2024-03-08T08:40:08;42.70;;;26.60;;
34920;SDS011;21128;50.016;20.002;2024-03-08T08:42:40;48.50;;;27.90;;
34920;SDS011;21128;50.016;20.002;2024-03-08T08:45:08;44.10;;;26.80;;
34920;SDS011;21128;50.016;20.002;2024-03-08T08:47:36;42.00;;;26.20;;
34920;SDS011;21128;50.016;20.002;2024-03-08T08:50:03;41.70;;;25.00;;
34920;SDS011;21128;50.016;20.002;2024-03-08T08:52:31;45.80;;;27.60;;
34920;SDS011;21128;50.016;20.002;2024-03-08T08:54:59;45.00;;;28.80;;
34920;SDS011;21128;50.016;20.002;2024-03-08T08:57:26;43.10;;;27.30;;
34920;SDS011;21128;50.016;20.002;2024-03-08T08:59:54;44.40;;;27.80;;
34920;SDS011;21128;50.016;20.002;2024-03-08T09:02:21;47.90;;;28.30;;
34920;SDS011;21128;50.016;20.002;2024-03-08T09:04:48;46.40;;;27.60;;
34920;SDS011;21128;50.016;20.002;2024-03-08T09:07:15;44.90;;;28.60;;
34920;SDS011;21128;50.016;20.002;2024-03-08T09:09:45;46.90;;;28.00;;
34920;SDS011;21128;50.016;20.002;2024-03-08T09:12:11;43.80;;;26.90;;
34920;SDS011;21128;50.016;20.002;2024-03-08T09:14:40;51.70;;;28.30;;
34920;SDS011;21128;50.016;20.002;2024-03-08T09:17:08;45.10;;;28.40;;
34920;SDS011;21128;50.016;20.002;2024-03-08T09:19:35;46.20;;;28.10;;
34920;SDS011;21128;50.016;20.002;2024-03-08T09:22:06;45.40;;;28.10;;
34920;SDS011;21128;50.016;20.002;2024-03-08T09:24:33;43.10;;;26.00;;
34920;SDS011;21128;50.016;20.002;2024-03-08T09:26:59;45.10;;;26.40;;
34920;SDS011;21128;50.016;20.002;2024-03-08T09:29:27;42.10;;;27.30;;
34920;SDS011;21128;50.016;20.002;2024-03-08T09:31:54;48.30;;;29.30;;
34920;SDS011;21128;50.016;20.002;2024-03-08T09:34:22;46.80;;;27.60;;
34920;SDS011;21128;50.016;20.002;2024-03-08T09:36:50;41.50;;;26.70;;
34920;SDS011;21128;50.016;20.002;2024-03-08T09:39:19;43.50;;;27.60;;
34920;SDS011;21128;50.016;20.002;2024-03-08T09:41:47;45.20;;;28.60;;
34920;SDS011;21128;50.016;20.002;2024-03-08T09:44:15;47.30;;;27.70;;
34920;SDS011;21128;50.016;20.002;2024-03-08T09:46:42;49.60;;;27.30;;
34920;SDS011;21128;50.016;20.002;2024-03-08T09:49:09;43.80;;;26.80;;
34920;SDS011;21128;50.016;20.002;2024-03-08T09:51:38;43.00;;;27.30;;
34920;SDS011;21128;50.016;20.002;2024-03-08T09:54:07;44.00;;;27.20;;
34920;SDS011;21128;50.016;20.002;2024-03-08T09:56:34;42.90;;;26.20;;
34920;SDS011;21128;50.016;20.002;2024-03-08T09:59:02;36.70;;;23.40;;
34920;SDS011;21128;50.016;20.002;2024-03-08T10:01:32;51.00;;;27.60;;
34920;SDS011;21128;50.016;20.002;2024-03-08T10:03:59;42.80;;;26.90;;
34920;SDS011;21128;50.016;20.002;2024-03-08T10:06:26;42.50;;;26.70;;
34920;SDS011;21128;50.016;20.002;2024-03-08T10:08:52;50.90;;;27.40;;
34920;SDS011;21128;50.016;20.002;2024-03-08T10:11:19;48.90;;;28.10;;
34920;SDS011;21128;50.016;20.002;2024-03-08T10:13:47;52.60;;;29.30;;
34920;SDS011;21128;50.016;20.002;2024-03-08T10:16:16;44.40;;;28.10;;
34920;SDS011;21128;50.016;20.002;2024-03-08T10:18:46;43.60;;;26.40;;
34920;SDS011;21128;50.016;20.002;2024-03-08T10:21:12;44.00;;;27.70;;
34920;SDS011;21128;50.016;20.002;2024-03-08T10:23:42;45.40;;;28.70;;
34920;SDS011;21128;50.016;20.002;2024-03-08T10:26:10;45.60;;;26.30;;
34920;SDS011;21128;50.016;20.002;2024-03-08T10:28:41;43.30;;;27.30;;
34920;SDS011;21128;50.016;20.002;2024-03-08T10:31:09;43.70;;;27.00;;
34920;SDS011;21128;50.016;20.002;2024-03-08T10:33:36;55.00;;;27.60;;
34920;SDS011;21128;50.016;20.002;2024-03-08T10:36:09;44.10;;;25.90;;
34920;SDS011;21128;50.016;20.002;2024-03-08T10:38:38;47.20;;;26.70;;
34920;SDS011;21128;50.016;20.002;2024-03-08T10:41:09;46.80;;;27.70;;
34920;SDS011;21128;50.016;20.002;2024-03-08T10:43:43;44.60;;;26.10;;
34920;SDS011;21128;50.016;20.002;2024-03-08T10:46:26;43.30;;;25.70;;
34920;SDS011;21128;50.016;20.002;2024-03-08T10:48:55;45.20;;;26.30;;
34920;SDS011;21128;50.016;20.002;2024-03-08T10:51:25;41.30;;;25.00;;
34920;SDS011;21128;50.016;20.002;2024-03-08T10:53:54;44.60;;;25.30;;
34920;SDS011;21128;50.016;20.002;2024-03-08T10:56:24;39.20;;;23.60;;
34920;SDS011;21128;50.016;20.002;2024-03-08T10:58:54;38.90;;;24.50;;
34920;SDS011;21128;50.016;20.002;2024-03-08T11:01:22;41.30;;;24.40;;
34920;SDS011;21128;50.016;20.002;2024-03-08T11:03:52;38.00;;;23.80;;
34920;SDS011;21128;50.016;20.002;2024-03-08T11:14:49;35.40;;;23.50;;
34920;SDS011;21128;50.016;20.002;2024-03-08T11:18:03;37.70;;;23.90;;
34920;SDS011;21128;50.016;20.002;2024-03-08T11:20:10;35.30;;;22.00;;
34920;SDS011;21128;50.016;20.002;2024-03-08T11:22:48;36.80;;;24.00;;
34920;SDS011;21128;50.016;20.002;2024-03-08T11:25:33;35.90;;;22.60;;
34920;SDS011;21128;50.016;20.002;2024-03-08T11:28:09;33.80;;;21.30;;
34920;SDS011;21128;50.016;20.002;2024-03-08T11:30:37;36.50;;;21.80;;
34920;SDS011;21128;50.016;20.002;2024-03-08T11:33:10;32.90;;;21.90;;
34920;SDS011;21128;50.016;20.002;2024-03-08T11:35:39;36.60;;;22.50;;
34920;SDS011;21128;50.016;20.002;2024-03-08T11:38:07;34.80;;;21.80;;
34920;SDS011;21128;50.016;20.002;2024-03-08T11:40:35;35.30;;;21.80;;
34920;SDS011;21128;50.016;20.002;2024-03-08T11:43:02;35.00;;;21.20;;
34920;SDS011;21128;50.016;20.002;2024-03-08T11:45:36;34.80;;;20.50;;
34920;SDS011;21128;50.016;20.002;2024-03-08T11:48:03;29.50;;;20.20;;
34920;SDS011;21128;50.016;20.002;2024-03-08T11:50:31;32.10;;;20.10;;
34920;SDS011;21128;50.016;20.002;2024-03-08T11:53:02;33.30;;;20.30;;
34920;SDS011;21128;50.016;20.002;2024-03-08T11:55:33;29.50;;;20.30;;
34920;SDS011;21128;50.016;20.002;2024-03-08T11:58:03;31.00;;;20.10;;
34920;SDS011;21128;50.016;20.002;2024-03-08T12:00:30;33.90;;;20.50;;
34920;SDS011;21128;50.016;20.002;2024-03-08T12:03:05;30.90;;;21.10;;
34920;SDS011;21128;50.016;20.002;2024-03-08T12:05:33;37.00;;;19.80;;
34920;SDS011;21128;50.016;20.002;2024-03-08T12:08:01;29.70;;;19.40;;
34920;SDS011;21128;50.016;20.002;2024-03-08T12:10:29;34.70;;;19.70;;
34920;SDS011;21128;50.016;20.002;2024-03-08T12:12:57;34.30;;;19.80;;
34920;SDS011;21128;50.016;20.002;2024-03-08T12:15:27;34.60;;;20.50;;
34920;SDS011;21128;50.016;20.002;2024-03-08T12:17:55;33.50;;;21.90;;
34920;SDS011;21128;50.016;20.002;2024-03-08T12:20:23;29.00;;;20.20;;
34920;SDS011;21128;50.016;20.002;2024-03-08T12:22:53;30.40;;;20.50;;
34920;SDS011;21128;50.016;20.002;2024-03-08T12:25:25;30.90;;;20.00;;
34920;SDS011;21128;50.016;20.002;2024-03-08T12:28:07;30.90;;;20.40;;
34920;SDS011;21128;50.016;20.002;2024-03-08T12:30:50;31.30;;;20.50;;
34920;SDS011;21128;50.016;20.002;2024-03-08T12:33:20;31.40;;;20.20;;
34920;SDS011;21128;50.016;20.002;2024-03-08T12:35:50;31.80;;;20.90;;
34920;SDS011;21128;50.016;20.002;2024-03-08T12:38:21;35.70;;;20.00;;
34920;SDS011;21128;50.016;20.002;2024-03-08T12:40:54;36.30;;;20.90;;
34920;SDS011;21128;50.016;20.002;2024-03-08T12:43:23;36.70;;;20.50;;
34920;SDS011;21128;50.016;20.002;2024-03-08T12:45:50;29.00;;;19.60;;
34920;SDS011;21128;50.016;20.002;2024-03-08T12:48:18;35.90;;;21.90;;
34920;SDS011;21128;50.016;20.002;2024-03-08T12:50:45;34.30;;;20.10;;
34920;SDS011;21128;50.016;20.002;2024-03-08T12:53:14;33.70;;;21.20;;
34920;SDS011;21128;50.016;20.002;2024-03-08T12:55:41;30.10;;;19.20;;
34920;SDS011;21128;50.016;20.002;2024-03-08T12:58:07;35.00;;;19.80;;
34920;SDS011;21128;50.016;20.002;2024-03-08T13:00:35;34.70;;;20.30;;
34920;SDS011;21128;50.016;20.002;2024-03-08T13:03:09;30.90;;;20.60;;
34920;SDS011;21128;50.016;20.002;2024-03-08T13:05:37;31.40;;;19.20;;
34920;SDS011;21128;50.016;20.002;2024-03-08T13:08:06;34.00;;;20.30;;
34920;SDS011;21128;50.016;20.002;2024-03-08T13:10:39;33.10;;;19.70;;
34920;SDS011;21128;50.016;20.002;2024-03-08T13:13:06;30.20;;;19.60;;
34920;SDS011;21128;50.016;20.002;2024-03-08T13:15:33;33.80;;;20.40;;
34920;SDS011;21128;50.016;20.002;2024-03-08T13:18:00;29.80;;;19.20;;
34920;SDS011;21128;50.016;20.002;2024-03-08T13:20:26;33.40;;;19.60;;
34920;SDS011;21128;50.016;20.002;2024-03-08T13:22:54;35.20;;;20.30;;
34920;SDS011;21128;50.016;20.002;2024-03-08T13:25:22;32.30;;;20.50;;
34920;SDS011;21128;50.016;20.002;2024-03-08T13:27:50;39.60;;;21.70;;
34920;SDS011;21128;50.016;20.002;2024-03-08T13:30:17;35.40;;;21.60;;
34920;SDS011;21128;50.016;20.002;2024-03-08T13:32:44;30.70;;;20.80;;
34920;SDS011;21128;50.016;20.002;2024-03-08T13:35:11;31.30;;;21.00;;
34920;SDS011;21128;50.016;20.002;2024-03-08T13:37:42;32.00;;;21.00;;
34920;SDS011;21128;50.016;20.002;2024-03-08T13:40:09;32.80;;;21.60;;
34920;SDS011;21128;50.016;20.002;2024-03-08T13:42:46;36.80;;;21.30;;
34920;SDS011;21128;50.016;20.002;2024-03-08T13:45:15;35.50;;;22.20;;
34920;SDS011;21128;50.016;20.002;2024-03-08T13:47:49;34.10;;;21.40;;
34920;SDS011;21128;50.016;20.002;2024-03-08T13:50:17;32.00;;;21.10;;
34920;SDS011;21128;50.016;20.002;2024-03-08T13:52:50;34.40;;;21.90;;
34920;SDS011;21128;50.016;20.002;2024-03-08T13:55:17;34.80;;;20.70;;
34920;SDS011;21128;50.016;20.002;2024-03-08T13:57:44;34.80;;;22.40;;
34920;SDS011;21128;50.016;20.002;2024-03-08T14:00:12;34.90;;;22.30;;
34920;SDS011;21128;50.016;20.002;2024-03-08T14:02:39;32.20;;;21.30;;
34920;SDS011;21128;50.016;20.002;2024-03-08T14:05:07;30.20;;;21.00;;
34920;SDS011;21128;50.016;20.002;2024-03-08T14:07:35;36.60;;;22.10;;
34920;SDS011;21128;50.016;20.002;2024-03-08T14:10:02;37.90;;;21.30;;
34920;SDS011;21128;50.016;20.002;2024-03-08T14:12:30;33.00;;;20.70;;
34920;SDS011;21128;50.016;20.002;2024-03-08T14:14:56;33.30;;;20.80;;
34920;SDS011;21128;50.016;20.002;2024-03-08T14:17:26;34.80;;;20.20;;
34920;SDS011;21128;50.016;20.002;2024-03-08T14:19:54;38.60;;;21.80;;
34920;SDS011;21128;50.016;20.002;2024-03-08T14:22:21;31.80;;;20.20;;
34920;SDS011;21128;50.016;20.002;2024-03-08T14:24:47;32.40;;;21.00;;